Guam International Airport Airport (GUM)

 

Airport Diagram
Current Weather/Forecast (VFR Conditions)
METAR PGUM 220754Z 19003KT 10SM FEW055 26/22 A2986 RMK AO2 SLP106 T02560222
TAF PGUM 220541Z 2206/2312 16007KT P6SM VCSH SCT020 SCT040 SCT120 TEMPO 2206/2208 5SM -SHRA SCT015 BKN035

All Charts

Inbound Traffic (Arrivals)

No inbound traffic.


Outbound Traffic (Departures)

No outbound traffic.